sensor_id;sensor_type;location;lat;lon;timestamp;pressure;altitude;pressure_sealevel;temperature;humidity
59116;BME280;53564;51.930;4.640;2022-07-06T00:00:57;102765.09;;;15.72;56.77
59116;BME280;53564;51.930;4.640;2022-07-06T00:03:23;102728.00;;;15.55;56.88
59116;BME280;53564;51.930;4.640;2022-07-06T00:05:48;102764.22;;;15.71;56.94
59116;BME280;53564;51.930;4.640;2022-07-06T00:08:13;102775.31;;;15.50;57.43
59116;BME280;53564;51.930;4.640;2022-07-06T00:10:38;102761.41;;;15.79;57.24
59116;BME280;53564;51.930;4.640;2022-07-06T00:13:04;102756.28;;;15.67;56.96
59116;BME280;53564;51.930;4.640;2022-07-06T00:15:29;102775.31;;;15.51;57.02
59116;BME280;53564;51.930;4.640;2022-07-06T00:17:54;102765.19;;;15.69;57.18
59116;BME280;53564;51.930;4.640;2022-07-06T00:20:20;102750.06;;;15.65;56.88
59116;BME280;53564;51.930;4.640;2022-07-06T00:22:45;102752.16;;;15.50;57.61
59116;BME280;53564;51.930;4.640;2022-07-06T00:25:10;102752.06;;;15.53;57.50
59116;BME280;53564;51.930;4.640;2022-07-06T00:27:36;102754.06;;;15.42;57.46
59116;BME280;53564;51.930;4.640;2022-07-06T00:30:07;102753.72;;;15.61;57.31
59116;BME280;53564;51.930;4.640;2022-07-06T00:32:32;102757.19;;;15.66;57.13
59116;BME280;53564;51.930;4.640;2022-07-06T00:34:58;102746.84;;;14.96;60.27
59116;BME280;53564;51.930;4.640;2022-07-06T00:37:23;102748.84;;;15.36;58.50
59116;BME280;53564;51.930;4.640;2022-07-06T00:39:48;102746.56;;;15.63;56.99
59116;BME280;53564;51.930;4.640;2022-07-06T00:42:14;102749.63;;;15.43;57.46
59116;BME280;53564;51.930;4.640;2022-07-06T00:44:39;102753.25;;;15.38;57.71
59116;BME280;53564;51.930;4.640;2022-07-06T00:47:05;102758.41;;;15.49;57.64
59116;BME280;53564;51.930;4.640;2022-07-06T00:49:30;102753.38;;;15.31;57.53
59116;BME280;53564;51.930;4.640;2022-07-06T00:52:14;102758.97;;;15.67;57.28
59116;BME280;53564;51.930;4.640;2022-07-06T00:54:41;102744.91;;;15.55;57.26
59116;BME280;53564;51.930;4.640;2022-07-06T00:57:07;102754.94;;;15.44;57.74
59116;BME280;53564;51.930;4.640;2022-07-06T00:59:32;102756.28;;;15.18;59.06
59116;BME280;53564;51.930;4.640;2022-07-06T01:01:58;102753.84;;;15.54;57.41
59116;BME280;53564;51.930;4.640;2022-07-06T01:04:23;102755.94;;;15.37;58.24
59116;BME280;53564;51.930;4.640;2022-07-06T01:06:49;102755.41;;;15.65;57.13
59116;BME280;53564;51.930;4.640;2022-07-06T01:09:14;102754.91;;;15.46;57.79
59116;BME280;53564;51.930;4.640;2022-07-06T01:11:40;102755.91;;;15.40;57.34
59116;BME280;53564;51.930;4.640;2022-07-06T01:14:05;102753.47;;;15.26;57.81
59116;BME280;53564;51.930;4.640;2022-07-06T01:16:31;102749.31;;;15.08;58.15
59116;BME280;53564;51.930;4.640;2022-07-06T01:18:56;102758.25;;;15.07;58.81
59116;BME280;53564;51.930;4.640;2022-07-06T01:21:22;102746.34;;;15.27;58.45
59116;BME280;53564;51.930;4.640;2022-07-06T01:23:47;102756.06;;;15.31;58.03
59116;BME280;53564;51.930;4.640;2022-07-06T01:26:14;102746.59;;;15.11;57.83
59116;BME280;53564;51.930;4.640;2022-07-06T01:28:41;102755.34;;;15.22;58.72
59116;BME280;53564;51.930;4.640;2022-07-06T01:31:14;102742.38;;;14.98;59.23
59116;BME280;53564;51.930;4.640;2022-07-06T01:33:40;102755.41;;;14.58;61.60
59116;BME280;53564;51.930;4.640;2022-07-06T01:36:05;102746.69;;;15.05;59.32
59116;BME280;53564;51.930;4.640;2022-07-06T01:38:30;102755.63;;;15.04;58.47
59116;BME280;53564;51.930;4.640;2022-07-06T01:40:56;102755.34;;;15.22;58.33
59116;BME280;53564;51.930;4.640;2022-07-06T01:43:21;102743.66;;;15.27;57.85
59116;BME280;53564;51.930;4.640;2022-07-06T01:45:46;102739.38;;;15.18;57.92
59116;BME280;53564;51.930;4.640;2022-07-06T01:48:12;102748.31;;;15.14;57.88
59116;BME280;53564;51.930;4.640;2022-07-06T01:50:37;102743.69;;;14.70;60.44
59116;BME280;53564;51.930;4.640;2022-07-06T01:53:02;102741.22;;;15.14;58.34
59116;BME280;53564;51.930;4.640;2022-07-06T01:55:28;102739.44;;;15.13;57.90
59116;BME280;53564;51.930;4.640;2022-07-06T01:57:53;102734.28;;;15.01;57.97
59116;BME280;53564;51.930;4.640;2022-07-06T02:00:18;102736.88;;;15.07;58.08
59116;BME280;53564;51.930;4.640;2022-07-06T02:02:43;102754.25;;;14.78;61.65
59116;BME280;53564;51.930;4.640;2022-07-06T02:05:08;102732.53;;;15.01;58.46
59116;BME280;53564;51.930;4.640;2022-07-06T02:07:34;102735.19;;;15.00;58.43
59116;BME280;53564;51.930;4.640;2022-07-06T02:09:59;102733.75;;;14.80;59.61
59116;BME280;53564;51.930;4.640;2022-07-06T02:12:24;102750.66;;;14.81;59.68
59116;BME280;53564;51.930;4.640;2022-07-06T02:14:50;102739.31;;;14.65;59.74
59116;BME280;53564;51.930;4.640;2022-07-06T02:17:15;102740.91;;;14.78;58.93
59116;BME280;53564;51.930;4.640;2022-07-06T02:19:40;102744.19;;;14.96;58.27
59116;BME280;53564;51.930;4.640;2022-07-06T02:22:05;102743.59;;;14.77;58.51
59116;BME280;53564;51.930;4.640;2022-07-06T02:24:31;102760.50;;;14.77;58.69
59116;BME280;53564;51.930;4.640;2022-07-06T02:26:56;102752.34;;;14.86;58.68
59116;BME280;53564;51.930;4.640;2022-07-06T02:29:21;102745.09;;;14.95;58.24
59116;BME280;53564;51.930;4.640;2022-07-06T02:31:46;102749.72;;;14.83;58.48
59116;BME280;53564;51.930;4.640;2022-07-06T02:34:12;102749.03;;;14.70;61.19
59116;BME280;53564;51.930;4.640;2022-07-06T02:36:37;102741.09;;;14.66;59.13
59116;BME280;53564;51.930;4.640;2022-07-06T02:39:03;102741.97;;;14.68;59.17
59116;BME280;53564;51.930;4.640;2022-07-06T02:41:28;102738.28;;;14.73;58.73
59116;BME280;53564;51.930;4.640;2022-07-06T02:43:53;102749.19;;;14.58;58.73
59116;BME280;53564;51.930;4.640;2022-07-06T02:46:18;102748.25;;;14.61;58.77
59116;BME280;53564;51.930;4.640;2022-07-06T02:48:44;102744.47;;;14.77;58.77
59116;BME280;53564;51.930;4.640;2022-07-06T02:51:09;102744.53;;;14.72;59.07
59116;BME280;53564;51.930;4.640;2022-07-06T02:53:34;102743.00;;;14.54;58.89
59116;BME280;53564;51.930;4.640;2022-07-06T02:55:59;102758.81;;;14.70;58.43
59116;BME280;53564;51.930;4.640;2022-07-06T02:58:25;102749.97;;;14.66;58.68
59116;BME280;53564;51.930;4.640;2022-07-06T03:00:50;102751.78;;;14.66;59.04
59116;BME280;53564;51.930;4.640;2022-07-06T03:03:15;102743.91;;;14.53;58.86
59116;BME280;53564;51.930;4.640;2022-07-06T03:05:40;102762.50;;;14.60;59.23
59116;BME280;53564;51.930;4.640;2022-07-06T03:08:06;102758.25;;;14.46;59.54
59116;BME280;53564;51.930;4.640;2022-07-06T03:10:31;102761.75;;;14.51;59.33
59116;BME280;53564;51.930;4.640;2022-07-06T03:12:56;102768.69;;;14.65;58.90
59116;BME280;53564;51.930;4.640;2022-07-06T03:15:21;102764.22;;;14.67;58.81
59116;BME280;53564;51.930;4.640;2022-07-06T03:17:47;102750.94;;;14.61;58.97
59116;BME280;53564;51.930;4.640;2022-07-06T03:20:12;102753.84;;;14.45;58.89
59116;BME280;53564;51.930;4.640;2022-07-06T03:22:39;102748.53;;;14.42;60.13
59116;BME280;53564;51.930;4.640;2022-07-06T03:25:04;102738.63;;;14.49;59.08
59116;BME280;53564;51.930;4.640;2022-07-06T03:27:30;102755.16;;;14.77;58.79
59116;BME280;53564;51.930;4.640;2022-07-06T03:29:55;102762.47;;;14.63;58.59
59116;BME280;53564;51.930;4.640;2022-07-06T03:32:20;102759.13;;;14.48;59.31
59116;BME280;53564;51.930;4.640;2022-07-06T03:34:45;102762.41;;;14.69;58.89
59116;BME280;53564;51.930;4.640;2022-07-06T03:37:11;102752.22;;;14.32;60.36
59116;BME280;53564;51.930;4.640;2022-07-06T03:39:36;102748.59;;;14.39;59.52
59116;BME280;53564;51.930;4.640;2022-07-06T03:42:01;102750.47;;;14.31;59.61
59116;BME280;53564;51.930;4.640;2022-07-06T03:44:27;102748.59;;;14.39;59.65
59116;BME280;53564;51.930;4.640;2022-07-06T03:46:52;102752.06;;;14.44;59.71
59116;BME280;53564;51.930;4.640;2022-07-06T03:49:20;102751.16;;;14.45;59.88
59116;BME280;53564;51.930;4.640;2022-07-06T03:51:45;102738.66;;;14.47;59.23
59116;BME280;53564;51.930;4.640;2022-07-06T03:54:11;102736.88;;;14.48;59.01
59116;BME280;53564;51.930;4.640;2022-07-06T03:56:36;102744.53;;;14.74;58.46
59116;BME280;53564;51.930;4.640;2022-07-06T03:59:03;102732.00;;;14.79;58.25
59116;BME280;53564;51.930;4.640;2022-07-06T04:01:29;102748.78;;;14.86;58.11
59116;BME280;53564;51.930;4.640;2022-07-06T04:03:55;102744.66;;;14.65;58.84
59116;BME280;53564;51.930;4.640;2022-07-06T04:06:20;102740.31;;;14.56;59.08
59116;BME280;53564;51.930;4.640;2022-07-06T04:08:46;102744.66;;;14.65;59.63
59116;BME280;53564;51.930;4.640;2022-07-06T04:11:11;102740.91;;;14.78;58.07
59116;BME280;53564;51.930;4.640;2022-07-06T04:13:36;102748.19;;;14.67;58.36
59116;BME280;53564;51.930;4.640;2022-07-06T04:16:04;102741.09;;;14.64;58.72
59116;BME280;53564;51.930;4.640;2022-07-06T04:18:29;102728.72;;;14.57;58.85
59116;BME280;53564;51.930;4.640;2022-07-06T04:20:55;102749.22;;;14.55;59.16
59116;BME280;53564;51.930;4.640;2022-07-06T04:23:22;102738.41;;;14.64;58.54
59116;BME280;53564;51.930;4.640;2022-07-06T04:25:47;102741.06;;;14.69;58.63
59116;BME280;53564;51.930;4.640;2022-07-06T04:28:13;102743.88;;;14.55;60.03
59116;BME280;53564;51.930;4.640;2022-07-06T04:30:38;102737.06;;;14.35;61.49
59116;BME280;53564;51.930;4.640;2022-07-06T04:33:03;102733.38;;;14.44;60.42
59116;BME280;53564;51.930;4.640;2022-07-06T04:35:28;102729.06;;;14.34;63.11
59116;BME280;53564;51.930;4.640;2022-07-06T04:37:54;102740.41;;;14.51;60.49
59116;BME280;53564;51.930;4.640;2022-07-06T04:40:19;102731.63;;;14.41;63.09
59116;BME280;53564;51.930;4.640;2022-07-06T04:42:44;102732.41;;;14.48;63.26
59116;BME280;53564;51.930;4.640;2022-07-06T04:45:10;102748.50;;;14.45;63.40
59116;BME280;53564;51.930;4.640;2022-07-06T04:47:35;102732.72;;;14.25;64.05
59116;BME280;53564;51.930;4.640;2022-07-06T04:50:01;102750.88;;;14.67;60.47
59116;BME280;53564;51.930;4.640;2022-07-06T04:52:26;102746.56;;;14.53;63.01
59116;BME280;53564;51.930;4.640;2022-07-06T04:54:54;102756.69;;;14.92;58.75
59116;BME280;53564;51.930;4.640;2022-07-06T04:57:19;102753.94;;;14.36;63.05
59116;BME280;53564;51.930;4.640;2022-07-06T04:59:44;102752.00;;;14.47;61.47
59116;BME280;53564;51.930;4.640;2022-07-06T05:02:10;102751.16;;;14.45;62.00
59116;BME280;53564;51.930;4.640;2022-07-06T05:04:35;102755.53;;;14.49;62.92
59116;BME280;53564;51.930;4.640;2022-07-06T05:07:00;102755.53;;;14.49;61.68
59116;BME280;53564;51.930;4.640;2022-07-06T05:09:25;102751.63;;;14.77;59.91
59116;BME280;53564;51.930;4.640;2022-07-06T05:11:51;102746.47;;;14.63;60.08
59116;BME280;53564;51.930;4.640;2022-07-06T05:14:16;102761.84;;;14.44;63.48
59116;BME280;53564;51.930;4.640;2022-07-06T05:16:41;102760.69;;;14.65;61.29
59116;BME280;53564;51.930;4.640;2022-07-06T05:19:07;102773.66;;;14.25;64.33
59116;BME280;53564;51.930;4.640;2022-07-06T05:21:32;102759.16;;;14.45;61.35
59116;BME280;53564;51.930;4.640;2022-07-06T05:23:57;102776.09;;;14.41;62.66
59116;BME280;53564;51.930;4.640;2022-07-06T05:26:22;102764.75;;;14.27;63.85
59116;BME280;53564;51.930;4.640;2022-07-06T05:28:48;102773.16;;;14.63;60.70
59116;BME280;53564;51.930;4.640;2022-07-06T05:31:13;102776.06;;;14.46;61.95
59116;BME280;53564;51.930;4.640;2022-07-06T05:33:39;102775.09;;;14.51;62.46
59116;BME280;53564;51.930;4.640;2022-07-06T05:36:04;102775.38;;;14.95;59.35
59116;BME280;53564;51.930;4.640;2022-07-06T05:38:30;102774.72;;;14.79;60.27
59116;BME280;53564;51.930;4.640;2022-07-06T05:40:55;102776.44;;;14.83;60.64
59116;BME280;53564;51.930;4.640;2022-07-06T05:43:20;102764.16;;;14.70;62.45
59116;BME280;53564;51.930;4.640;2022-07-06T05:45:46;102766.47;;;14.95;61.21
59116;BME280;53564;51.930;4.640;2022-07-06T05:48:11;102767.31;;;14.97;59.95
59116;BME280;53564;51.930;4.640;2022-07-06T05:50:55;102763.47;;;15.13;58.24
59116;BME280;53564;51.930;4.640;2022-07-06T05:53:20;102768.94;;;15.07;58.74
59116;BME280;53564;51.930;4.640;2022-07-06T05:55:46;102769.81;;;15.09;59.62
59116;BME280;53564;51.930;4.640;2022-07-06T05:58:12;102773.47;;;15.02;62.40
59116;BME280;53564;51.930;4.640;2022-07-06T06:00:37;102764.44;;;15.09;59.70
59116;BME280;53564;51.930;4.640;2022-07-06T06:03:02;102768.50;;;15.32;57.94
59116;BME280;53564;51.930;4.640;2022-07-06T06:05:28;102769.84;;;15.08;61.27
59116;BME280;53564;51.930;4.640;2022-07-06T06:07:56;102778.34;;;15.30;59.95
59116;BME280;53564;51.930;4.640;2022-07-06T06:10:21;102774.75;;;15.31;58.08
59116;BME280;53564;51.930;4.640;2022-07-06T06:12:47;102778.38;;;15.28;59.00
59116;BME280;53564;51.930;4.640;2022-07-06T06:15:13;102753.53;;;15.23;60.54
59116;BME280;53564;51.930;4.640;2022-07-06T06:17:39;102770.28;;;15.33;58.55
59116;BME280;53564;51.930;4.640;2022-07-06T06:20:06;102777.19;;;15.45;57.23
59116;BME280;53564;51.930;4.640;2022-07-06T06:22:43;102776.41;;;15.39;59.35
59116;BME280;53564;51.930;4.640;2022-07-06T06:25:09;102770.94;;;15.46;57.73
59116;BME280;53564;51.930;4.640;2022-07-06T06:27:35;102773.44;;;15.57;59.65
59116;BME280;53564;51.930;4.640;2022-07-06T06:30:00;102765.28;;;15.63;57.69
59116;BME280;53564;51.930;4.640;2022-07-06T06:32:25;102767.09;;;15.61;57.78
59116;BME280;53564;51.930;4.640;2022-07-06T06:34:50;102769.66;;;15.67;58.47
59116;BME280;53564;51.930;4.640;2022-07-06T06:37:16;102786.72;;;15.60;58.27
59116;BME280;53564;51.930;4.640;2022-07-06T06:39:41;102782.84;;;15.76;58.42
59116;BME280;53564;51.930;4.640;2022-07-06T06:42:06;102783.78;;;15.75;59.36
59116;BME280;53564;51.930;4.640;2022-07-06T06:44:32;102769.47;;;15.76;57.07
59116;BME280;53564;51.930;4.640;2022-07-06T06:46:57;102772.75;;;15.94;59.29
59116;BME280;53564;51.930;4.640;2022-07-06T06:49:22;102782.16;;;16.13;60.19
59116;BME280;53564;51.930;4.640;2022-07-06T06:51:48;102772.75;;;15.94;57.62
59116;BME280;53564;51.930;4.640;2022-07-06T06:54:14;102773.66;;;15.91;57.16
59116;BME280;53564;51.930;4.640;2022-07-06T06:56:39;102774.13;;;16.13;56.04
59116;BME280;53564;51.930;4.640;2022-07-06T06:59:04;102775.66;;;16.24;55.75
59116;BME280;53564;51.930;4.640;2022-07-06T07:01:29;102783.78;;;16.21;58.00
59116;BME280;53564;51.930;4.640;2022-07-06T07:03:55;102770.31;;;16.25;56.67
59116;BME280;53564;51.930;4.640;2022-07-06T07:06:21;102772.81;;;16.33;55.55
59116;BME280;53564;51.930;4.640;2022-07-06T07:08:47;102772.53;;;16.45;55.58
59116;BME280;53564;51.930;4.640;2022-07-06T07:11:12;102767.09;;;16.50;55.68
59116;BME280;53564;51.930;4.640;2022-07-06T07:13:37;102780.38;;;16.55;55.39
59116;BME280;53564;51.930;4.640;2022-07-06T07:16:03;102781.22;;;16.57;56.09
59116;BME280;53564;51.930;4.640;2022-07-06T07:18:28;102771.63;;;16.46;55.51
59116;BME280;53564;51.930;4.640;2022-07-06T07:20:53;102783.47;;;16.75;54.49
59116;BME280;53564;51.930;4.640;2022-07-06T07:23:19;102765.88;;;16.65;54.42
59116;BME280;53564;51.930;4.640;2022-07-06T07:25:44;102778.03;;;16.78;53.50
59116;BME280;53564;51.930;4.640;2022-07-06T07:28:09;102783.75;;;17.02;53.60
59116;BME280;53564;51.930;4.640;2022-07-06T07:30:35;102775.78;;;16.99;53.05
59116;BME280;53564;51.930;4.640;2022-07-06T07:33:00;102771.25;;;17.01;53.31
59116;BME280;53564;51.930;4.640;2022-07-06T07:35:26;102768.59;;;17.36;53.30
59116;BME280;53564;51.930;4.640;2022-07-06T07:37:51;102772.84;;;17.44;52.55
59116;BME280;53564;51.930;4.640;2022-07-06T07:40:17;102772.69;;;17.51;52.69
59116;BME280;53564;51.930;4.640;2022-07-06T07:42:42;102776.59;;;17.37;53.00
59116;BME280;53564;51.930;4.640;2022-07-06T07:45:08;102768.47;;;17.73;52.22
59116;BME280;53564;51.930;4.640;2022-07-06T07:47:34;102769.16;;;17.48;51.23
59116;BME280;53564;51.930;4.640;2022-07-06T07:49:59;102768.81;;;17.61;50.36
59116;BME280;53564;51.930;4.640;2022-07-06T07:52:25;102764.28;;;17.98;48.67
59116;BME280;53564;51.930;4.640;2022-07-06T07:54:50;102761.31;;;18.07;48.71
59116;BME280;53564;51.930;4.640;2022-07-06T07:57:15;102749.97;;;17.97;49.86
59116;BME280;53564;51.930;4.640;2022-07-06T07:59:40;102751.69;;;18.29;49.40
59116;BME280;53564;51.930;4.640;2022-07-06T08:02:07;102767.53;;;18.39;49.89
59116;BME280;53564;51.930;4.640;2022-07-06T08:04:32;102752.75;;;18.54;46.85
59116;BME280;53564;51.930;4.640;2022-07-06T08:06:57;102746.53;;;18.52;46.70
59116;BME280;53564;51.930;4.640;2022-07-06T08:09:23;102757.69;;;17.76;46.29
59116;BME280;53564;51.930;4.640;2022-07-06T08:11:48;102752.09;;;18.16;47.04
59116;BME280;53564;51.930;4.640;2022-07-06T08:14:13;102758.13;;;18.54;48.50
59116;BME280;53564;51.930;4.640;2022-07-06T08:16:40;102757.47;;;18.16;45.20
59116;BME280;53564;51.930;4.640;2022-07-06T08:19:05;102758.78;;;19.16;44.98
59116;BME280;53564;51.930;4.640;2022-07-06T08:21:31;102751.03;;;19.33;48.54
59116;BME280;53564;51.930;4.640;2022-07-06T08:23:56;102750.06;;;19.61;45.43
59116;BME280;53564;51.930;4.640;2022-07-06T08:26:22;102753.13;;;18.98;46.83
59116;BME280;53564;51.930;4.640;2022-07-06T08:28:47;102756.31;;;19.36;47.54
59116;BME280;53564;51.930;4.640;2022-07-06T08:31:12;102752.69;;;19.63;46.84
59116;BME280;53564;51.930;4.640;2022-07-06T08:33:38;102749.47;;;19.77;44.95
59116;BME280;53564;51.930;4.640;2022-07-06T08:36:03;102749.84;;;19.67;47.38
59116;BME280;53564;51.930;4.640;2022-07-06T08:38:29;102743.78;;;19.86;42.93
59116;BME280;53564;51.930;4.640;2022-07-06T08:40:55;102741.22;;;20.06;44.41
59116;BME280;53564;51.930;4.640;2022-07-06T08:43:21;102751.16;;;20.28;46.38
59116;BME280;53564;51.930;4.640;2022-07-06T08:45:49;102741.84;;;20.13;45.85
59116;BME280;53564;51.930;4.640;2022-07-06T08:48:15;102744.44;;;19.42;41.37
59116;BME280;53564;51.930;4.640;2022-07-06T08:50:41;102751.91;;;18.80;41.90
59116;BME280;53564;51.930;4.640;2022-07-06T08:53:06;102740.94;;;19.40;44.17
59116;BME280;53564;51.930;4.640;2022-07-06T08:55:32;102733.97;;;19.85;41.89
59116;BME280;53564;51.930;4.640;2022-07-06T08:57:58;102740.66;;;18.96;41.79
59116;BME280;53564;51.930;4.640;2022-07-06T09:00:26;102742.31;;;18.71;41.78
59116;BME280;53564;51.930;4.640;2022-07-06T09:02:51;102734.06;;;20.05;47.33
59116;BME280;53564;51.930;4.640;2022-07-06T09:05:21;102731.13;;;20.35;41.82
59116;BME280;53564;51.930;4.640;2022-07-06T09:07:50;102729.44;;;20.33;43.90
59116;BME280;53564;51.930;4.640;2022-07-06T09:10:17;102744.75;;;19.07;40.17
59116;BME280;53564;51.930;4.640;2022-07-06T09:12:44;102742.88;;;19.09;40.27
59116;BME280;53564;51.930;4.640;2022-07-06T09:15:09;102730.69;;;19.26;40.68
59116;BME280;53564;51.930;4.640;2022-07-06T09:17:38;102733.47;;;19.73;42.73
59116;BME280;53564;51.930;4.640;2022-07-06T09:20:07;102728.00;;;20.68;44.56
59116;BME280;53564;51.930;4.640;2022-07-06T09:22:33;102733.38;;;20.46;40.56
59116;BME280;53564;51.930;4.640;2022-07-06T09:25:07;102738.00;;;21.09;45.27
59116;BME280;53564;51.930;4.640;2022-07-06T09:27:41;102732.97;;;21.22;42.18
59116;BME280;53564;51.930;4.640;2022-07-06T09:30:08;102744.75;;;20.09;40.50
59116;BME280;53564;51.930;4.640;2022-07-06T09:32:44;102746.31;;;19.65;40.15
59116;BME280;53564;51.930;4.640;2022-07-06T09:35:39;102740.78;;;21.49;43.34
59116;BME280;53564;51.930;4.640;2022-07-06T09:40:33;102744.56;;;21.03;38.29
59116;BME280;53564;51.930;4.640;2022-07-06T09:43:16;102749.56;;;21.33;43.96
59116;BME280;53564;51.930;4.640;2022-07-06T09:45:44;102750.72;;;20.85;38.49
59116;BME280;53564;51.930;4.640;2022-07-06T09:48:14;102757.97;;;21.05;38.02
59116;BME280;53564;51.930;4.640;2022-07-06T09:50:45;102761.00;;;21.61;41.71
59116;BME280;53564;51.930;4.640;2022-07-06T09:53:11;102758.34;;;21.59;42.81
59116;BME280;53564;51.930;4.640;2022-07-06T09:55:37;102764.13;;;21.50;40.99
59116;BME280;53564;51.930;4.640;2022-07-06T09:58:03;102762.53;;;21.46;43.17
59116;BME280;53564;51.930;4.640;2022-07-06T10:00:28;102756.72;;;21.55;40.13
59116;BME280;53564;51.930;4.640;2022-07-06T10:02:54;102760.81;;;21.23;43.08
59116;BME280;53564;51.930;4.640;2022-07-06T10:05:21;102750.34;;;21.35;40.13
59116;BME280;53564;51.930;4.640;2022-07-06T10:07:52;102756.19;;;21.67;39.50
59116;BME280;53564;51.930;4.640;2022-07-06T10:10:20;102757.25;;;21.84;44.78
59116;BME280;53564;51.930;4.640;2022-07-06T10:12:47;102743.19;;;22.15;37.83
59116;BME280;53564;51.930;4.640;2022-07-06T10:15:16;102746.84;;;20.92;38.68
59116;BME280;53564;51.930;4.640;2022-07-06T10:17:43;102740.66;;;20.44;40.23
59116;BME280;53564;51.930;4.640;2022-07-06T10:20:11;102738.44;;;20.78;39.20
59116;BME280;53564;51.930;4.640;2022-07-06T10:22:40;102740.66;;;21.73;38.21
59116;BME280;53564;51.930;4.640;2022-07-06T10:25:05;102747.94;;;21.50;39.14
59116;BME280;53564;51.930;4.640;2022-07-06T10:27:32;102734.06;;;22.56;41.52
59116;BME280;53564;51.930;4.640;2022-07-06T10:29:57;102744.00;;;22.17;41.94
59116;BME280;53564;51.930;4.640;2022-07-06T10:32:24;102739.03;;;22.27;39.73
59116;BME280;53564;51.930;4.640;2022-07-06T10:34:50;102735.78;;;23.11;40.73
59116;BME280;53564;51.930;4.640;2022-07-06T10:37:26;102736.94;;;21.13;39.14
59116;BME280;53564;51.930;4.640;2022-07-06T10:39:52;102731.50;;;22.34;39.75
59116;BME280;53564;51.930;4.640;2022-07-06T10:42:57;102736.00;;;22.89;40.87
59116;BME280;53564;51.930;4.640;2022-07-06T10:50:38;102731.00;;;23.85;36.00
59116;BME280;53564;51.930;4.640;2022-07-06T10:53:21;102729.47;;;23.30;38.17
59116;BME280;53564;51.930;4.640;2022-07-06T10:55:48;102736.53;;;22.42;36.27
59116;BME280;53564;51.930;4.640;2022-07-06T10:58:34;102728.72;;;23.77;39.43
59116;BME280;53564;51.930;4.640;2022-07-06T11:01:00;102726.53;;;22.80;33.51
59116;BME280;53564;51.930;4.640;2022-07-06T11:11:14;102709.47;;;24.80;38.26
59116;BME280;53564;51.930;4.640;2022-07-06T11:14:05;102702.59;;;24.42;36.67
59116;BME280;53564;51.930;4.640;2022-07-06T11:16:31;102699.00;;;23.93;40.48
59116;BME280;53564;51.930;4.640;2022-07-06T11:19:21;102698.50;;;23.85;37.84
59116;BME280;53564;51.930;4.640;2022-07-06T11:22:05;102686.59;;;24.21;33.79
59116;BME280;53564;51.930;4.640;2022-07-06T11:24:32;102689.50;;;24.18;40.09
59116;BME280;53564;51.930;4.640;2022-07-06T11:26:59;102685.47;;;23.93;34.20
59116;BME280;53564;51.930;4.640;2022-07-06T11:29:25;102681.75;;;25.19;40.59
59116;BME280;53564;51.930;4.640;2022-07-06T11:31:55;102680.03;;;23.26;42.64
59116;BME280;53564;51.930;4.640;2022-07-06T11:34:35;102671.13;;;24.39;39.32
59116;BME280;53564;51.930;4.640;2022-07-06T11:37:05;102661.59;;;24.16;41.29
59116;BME280;53564;51.930;4.640;2022-07-06T11:39:33;102664.94;;;24.68;41.33
59116;BME280;53564;51.930;4.640;2022-07-06T11:42:00;102671.41;;;24.49;35.19
59116;BME280;53564;51.930;4.640;2022-07-06T11:44:26;102663.84;;;25.75;39.57
59116;BME280;53564;51.930;4.640;2022-07-06T11:46:51;102664.47;;;25.06;39.11
59116;BME280;53564;51.930;4.640;2022-07-06T11:49:17;102652.13;;;25.00;35.48
59116;BME280;53564;51.930;4.640;2022-07-06T11:51:44;102657.69;;;25.85;37.95
59116;BME280;53564;51.930;4.640;2022-07-06T11:54:17;102651.81;;;26.48;38.56
59116;BME280;53564;51.930;4.640;2022-07-06T11:56:54;102660.56;;;25.55;36.03
59116;BME280;53564;51.930;4.640;2022-07-06T11:59:23;102661.53;;;26.52;37.06
59116;BME280;53564;51.930;4.640;2022-07-06T12:01:48;102654.88;;;26.16;36.54
59116;BME280;53564;51.930;4.640;2022-07-06T12:04:14;102658.84;;;26.38;39.06
59116;BME280;53564;51.930;4.640;2022-07-06T12:06:39;102658.72;;;25.41;32.58
59116;BME280;53564;51.930;4.640;2022-07-06T12:09:05;102666.31;;;25.05;39.80
59116;BME280;53564;51.930;4.640;2022-07-06T12:11:34;102662.47;;;24.79;33.32
59116;BME280;53564;51.930;4.640;2022-07-06T12:14:03;102667.31;;;25.33;35.64
59116;BME280;53564;51.930;4.640;2022-07-06T12:16:37;102658.97;;;26.36;38.41
59116;BME280;53564;51.930;4.640;2022-07-06T12:19:03;102647.78;;;26.41;33.75
59116;BME280;53564;51.930;4.640;2022-07-06T12:21:29;102632.56;;;27.30;37.97
59116;BME280;53564;51.930;4.640;2022-07-06T12:23:55;102646.06;;;26.93;33.58
59116;BME280;53564;51.930;4.640;2022-07-06T12:26:23;102653.69;;;26.88;33.44
59116;BME280;53564;51.930;4.640;2022-07-06T12:29:00;102663.81;;;23.76;38.28
59116;BME280;53564;51.930;4.640;2022-07-06T12:31:34;102657.41;;;24.73;34.40
59116;BME280;53564;51.930;4.640;2022-07-06T12:33:59;102656.94;;;24.34;40.70
59116;BME280;53564;51.930;4.640;2022-07-06T12:36:25;102644.72;;;25.91;32.67
59116;BME280;53564;51.930;4.640;2022-07-06T12:38:50;102646.91;;;26.40;36.01
59116;BME280;53564;51.930;4.640;2022-07-06T12:41:26;102631.59;;;26.79;36.53
59116;BME280;53564;51.930;4.640;2022-07-06T12:44:06;102641.47;;;25.42;39.06
59116;BME280;53564;51.930;4.640;2022-07-06T12:46:37;102651.38;;;25.43;35.62
59116;BME280;53564;51.930;4.640;2022-07-06T12:49:10;102635.63;;;25.63;39.16
59116;BME280;53564;51.930;4.640;2022-07-06T12:54:34;102629.47;;;26.30;32.92
59116;BME280;53564;51.930;4.640;2022-07-06T12:57:02;102624.72;;;26.46;34.75
59116;BME280;53564;51.930;4.640;2022-07-06T12:59:29;102621.28;;;23.11;39.74
59116;BME280;53564;51.930;4.640;2022-07-06T13:01:55;102615.84;;;25.61;38.83
59116;BME280;53564;51.930;4.640;2022-07-06T13:04:24;102628.88;;;25.56;35.43
59116;BME280;53564;51.930;4.640;2022-07-06T13:06:50;102631.63;;;26.25;37.87